sensor_id;sensor_type;location;lat;lon;timestamp;P1;durP1;ratioP1;P2;durP2;ratioP2
11398;SDS011;5755;48.116;11.608;2023-05-07T00:02:07;7.88;;;6.78;;
11398;SDS011;5755;48.116;11.608;2023-05-07T00:04:34;7.95;;;6.53;;
11398;SDS011;5755;48.116;11.608;2023-05-07T00:07:02;8.00;;;6.97;;
11398;SDS011;5755;48.116;11.608;2023-05-07T00:09:29;8.65;;;6.63;;
11398;SDS011;5755;48.116;11.608;2023-05-07T00:11:56;8.82;;;7.38;;
11398;SDS011;5755;48.116;11.608;2023-05-07T00:14:23;10.90;;;7.25;;
11398;SDS011;5755;48.116;11.608;2023-05-07T00:16:52;8.75;;;7.03;;
11398;SDS011;5755;48.116;11.608;2023-05-07T00:19:21;7.40;;;5.65;;
11398;SDS011;5755;48.116;11.608;2023-05-07T00:21:48;6.50;;;5.88;;
11398;SDS011;5755;48.116;11.608;2023-05-07T00:24:15;8.52;;;6.63;;
11398;SDS011;5755;48.116;11.608;2023-05-07T00:26:42;8.35;;;6.07;;
11398;SDS011;5755;48.116;11.608;2023-05-07T00:29:09;8.98;;;6.70;;
11398;SDS011;5755;48.116;11.608;2023-05-07T00:31:35;7.50;;;6.60;;
11398;SDS011;5755;48.116;11.608;2023-05-07T00:34:04;8.80;;;6.38;;
11398;SDS011;5755;48.116;11.608;2023-05-07T00:36:30;8.30;;;6.38;;
11398;SDS011;5755;48.116;11.608;2023-05-07T00:38:59;8.00;;;6.95;;
11398;SDS011;5755;48.116;11.608;2023-05-07T00:41:28;8.82;;;7.85;;
11398;SDS011;5755;48.116;11.608;2023-05-07T00:43:55;9.82;;;8.60;;
11398;SDS011;5755;48.116;11.608;2023-05-07T00:46:23;11.07;;;8.80;;
11398;SDS011;5755;48.116;11.608;2023-05-07T00:48:50;7.97;;;7.15;;
11398;SDS011;5755;48.116;11.608;2023-05-07T00:51:19;9.65;;;6.93;;
11398;SDS011;5755;48.116;11.608;2023-05-07T00:53:46;11.25;;;7.18;;
11398;SDS011;5755;48.116;11.608;2023-05-07T00:56:14;9.23;;;6.40;;
11398;SDS011;5755;48.116;11.608;2023-05-07T00:58:41;8.50;;;6.20;;
11398;SDS011;5755;48.116;11.608;2023-05-07T01:01:08;8.60;;;7.70;;
11398;SDS011;5755;48.116;11.608;2023-05-07T01:03:35;8.93;;;7.40;;
11398;SDS011;5755;48.116;11.608;2023-05-07T01:06:03;8.23;;;6.47;;
11398;SDS011;5755;48.116;11.608;2023-05-07T01:08:34;6.95;;;6.25;;
11398;SDS011;5755;48.116;11.608;2023-05-07T01:11:01;20.45;;;17.05;;
11398;SDS011;5755;48.116;11.608;2023-05-07T01:13:28;12.93;;;11.43;;
11398;SDS011;5755;48.116;11.608;2023-05-07T01:15:57;10.95;;;9.75;;
11398;SDS011;5755;48.116;11.608;2023-05-07T01:18:24;11.13;;;10.02;;
11398;SDS011;5755;48.116;11.608;2023-05-07T01:20:51;9.77;;;7.45;;
11398;SDS011;5755;48.116;11.608;2023-05-07T01:23:20;9.32;;;8.00;;
11398;SDS011;5755;48.116;11.608;2023-05-07T01:25:51;10.35;;;6.60;;
11398;SDS011;5755;48.116;11.608;2023-05-07T01:28:19;6.30;;;5.70;;
11398;SDS011;5755;48.116;11.608;2023-05-07T01:30:47;9.55;;;6.72;;
11398;SDS011;5755;48.116;11.608;2023-05-07T01:33:34;10.27;;;7.43;;
11398;SDS011;5755;48.116;11.608;2023-05-07T01:36:02;13.52;;;9.30;;
11398;SDS011;5755;48.116;11.608;2023-05-07T01:38:33;8.18;;;6.70;;
11398;SDS011;5755;48.116;11.608;2023-05-07T01:41:02;9.43;;;8.40;;
11398;SDS011;5755;48.116;11.608;2023-05-07T01:43:29;7.03;;;5.80;;
11398;SDS011;5755;48.116;11.608;2023-05-07T01:45:57;8.93;;;5.75;;
11398;SDS011;5755;48.116;11.608;2023-05-07T01:48:26;8.32;;;6.30;;
11398;SDS011;5755;48.116;11.608;2023-05-07T01:50:53;10.50;;;6.97;;
11398;SDS011;5755;48.116;11.608;2023-05-07T01:53:21;11.55;;;9.35;;
11398;SDS011;5755;48.116;11.608;2023-05-07T01:55:50;8.90;;;7.40;;
11398;SDS011;5755;48.116;11.608;2023-05-07T01:58:18;8.88;;;7.90;;
11398;SDS011;5755;48.116;11.608;2023-05-07T02:00:44;10.98;;;7.38;;
11398;SDS011;5755;48.116;11.608;2023-05-07T02:03:12;9.07;;;7.70;;
11398;SDS011;5755;48.116;11.608;2023-05-07T02:05:39;6.45;;;5.30;;
11398;SDS011;5755;48.116;11.608;2023-05-07T02:08:05;10.10;;;7.80;;
11398;SDS011;5755;48.116;11.608;2023-05-07T02:10:32;9.07;;;6.63;;
11398;SDS011;5755;48.116;11.608;2023-05-07T02:13:02;7.07;;;6.38;;
11398;SDS011;5755;48.116;11.608;2023-05-07T02:15:29;10.27;;;7.47;;
11398;SDS011;5755;48.116;11.608;2023-05-07T02:17:59;8.15;;;7.20;;
11398;SDS011;5755;48.116;11.608;2023-05-07T02:20:28;7.72;;;6.93;;
11398;SDS011;5755;48.116;11.608;2023-05-07T02:22:55;9.10;;;6.68;;
11398;SDS011;5755;48.116;11.608;2023-05-07T02:25:23;7.80;;;6.65;;
11398;SDS011;5755;48.116;11.608;2023-05-07T02:27:50;8.25;;;5.82;;
11398;SDS011;5755;48.116;11.608;2023-05-07T02:30:19;6.90;;;6.20;;
11398;SDS011;5755;48.116;11.608;2023-05-07T02:32:46;7.15;;;6.45;;
11398;SDS011;5755;48.116;11.608;2023-05-07T02:35:13;6.88;;;6.00;;
11398;SDS011;5755;48.116;11.608;2023-05-07T02:37:40;8.90;;;6.10;;
11398;SDS011;5755;48.116;11.608;2023-05-07T02:40:07;7.10;;;6.25;;
11398;SDS011;5755;48.116;11.608;2023-05-07T02:42:35;7.15;;;5.55;;
11398;SDS011;5755;48.116;11.608;2023-05-07T02:45:02;10.80;;;5.80;;
11398;SDS011;5755;48.116;11.608;2023-05-07T02:47:31;8.30;;;5.95;;
11398;SDS011;5755;48.116;11.608;2023-05-07T02:49:58;7.28;;;6.38;;
11398;SDS011;5755;48.116;11.608;2023-05-07T02:52:25;7.57;;;5.80;;
11398;SDS011;5755;48.116;11.608;2023-05-07T02:54:52;7.90;;;6.20;;
11398;SDS011;5755;48.116;11.608;2023-05-07T02:57:19;8.77;;;6.38;;
11398;SDS011;5755;48.116;11.608;2023-05-07T02:59:46;7.50;;;5.75;;
11398;SDS011;5755;48.116;11.608;2023-05-07T03:02:13;7.68;;;5.40;;
11398;SDS011;5755;48.116;11.608;2023-05-07T03:04:41;6.57;;;5.22;;
11398;SDS011;5755;48.116;11.608;2023-05-07T03:07:08;7.28;;;5.97;;
11398;SDS011;5755;48.116;11.608;2023-05-07T03:09:35;6.65;;;6.05;;
11398;SDS011;5755;48.116;11.608;2023-05-07T03:12:02;8.45;;;5.60;;
11398;SDS011;5755;48.116;11.608;2023-05-07T03:14:28;5.57;;;5.05;;
11398;SDS011;5755;48.116;11.608;2023-05-07T03:16:56;5.90;;;5.30;;
11398;SDS011;5755;48.116;11.608;2023-05-07T03:19:22;7.05;;;5.10;;
11398;SDS011;5755;48.116;11.608;2023-05-07T03:21:51;5.30;;;4.70;;
11398;SDS011;5755;48.116;11.608;2023-05-07T03:24:18;8.63;;;4.90;;
11398;SDS011;5755;48.116;11.608;2023-05-07T03:26:45;6.70;;;5.00;;
11398;SDS011;5755;48.116;11.608;2023-05-07T03:29:12;8.25;;;5.13;;
11398;SDS011;5755;48.116;11.608;2023-05-07T03:31:39;6.63;;;4.90;;
11398;SDS011;5755;48.116;11.608;2023-05-07T03:34:06;5.28;;;4.57;;
11398;SDS011;5755;48.116;11.608;2023-05-07T03:36:32;9.80;;;4.97;;
11398;SDS011;5755;48.116;11.608;2023-05-07T03:39:01;5.47;;;4.95;;
11398;SDS011;5755;48.116;11.608;2023-05-07T03:41:28;5.40;;;4.90;;
11398;SDS011;5755;48.116;11.608;2023-05-07T03:43:55;5.55;;;4.93;;
11398;SDS011;5755;48.116;11.608;2023-05-07T03:46:22;5.38;;;4.82;;
11398;SDS011;5755;48.116;11.608;2023-05-07T03:48:51;5.82;;;5.22;;
11398;SDS011;5755;48.116;11.608;2023-05-07T03:51:18;6.32;;;5.10;;
11398;SDS011;5755;48.116;11.608;2023-05-07T03:53:45;6.28;;;4.88;;
11398;SDS011;5755;48.116;11.608;2023-05-07T03:56:13;6.22;;;4.20;;
11398;SDS011;5755;48.116;11.608;2023-05-07T03:58:40;6.63;;;4.85;;
11398;SDS011;5755;48.116;11.608;2023-05-07T04:01:07;5.65;;;4.38;;
11398;SDS011;5755;48.116;11.608;2023-05-07T04:03:34;7.60;;;4.72;;
11398;SDS011;5755;48.116;11.608;2023-05-07T04:06:01;8.52;;;5.18;;
11398;SDS011;5755;48.116;11.608;2023-05-07T04:08:28;6.70;;;4.80;;
11398;SDS011;5755;48.116;11.608;2023-05-07T04:10:55;8.98;;;5.22;;
11398;SDS011;5755;48.116;11.608;2023-05-07T04:13:24;5.03;;;4.35;;
11398;SDS011;5755;48.116;11.608;2023-05-07T04:15:51;6.45;;;4.75;;
11398;SDS011;5755;48.116;11.608;2023-05-07T04:18:19;5.68;;;4.38;;
11398;SDS011;5755;48.116;11.608;2023-05-07T04:20:46;6.43;;;4.65;;
11398;SDS011;5755;48.116;11.608;2023-05-07T04:23:14;8.05;;;4.55;;
11398;SDS011;5755;48.116;11.608;2023-05-07T04:25:41;6.25;;;4.63;;
11398;SDS011;5755;48.116;11.608;2023-05-07T04:28:08;6.05;;;4.05;;
11398;SDS011;5755;48.116;11.608;2023-05-07T04:30:36;6.20;;;4.63;;
11398;SDS011;5755;48.116;11.608;2023-05-07T04:33:03;8.20;;;4.53;;
11398;SDS011;5755;48.116;11.608;2023-05-07T04:35:31;6.60;;;4.18;;
11398;SDS011;5755;48.116;11.608;2023-05-07T04:37:58;5.43;;;4.38;;
11398;SDS011;5755;48.116;11.608;2023-05-07T04:40:25;4.90;;;4.40;;
11398;SDS011;5755;48.116;11.608;2023-05-07T04:42:52;5.22;;;4.15;;
11398;SDS011;5755;48.116;11.608;2023-05-07T04:45:19;4.88;;;4.20;;
11398;SDS011;5755;48.116;11.608;2023-05-07T04:47:47;4.40;;;4.00;;
11398;SDS011;5755;48.116;11.608;2023-05-07T04:50:14;4.82;;;4.30;;
11398;SDS011;5755;48.116;11.608;2023-05-07T04:52:42;5.75;;;4.80;;
11398;SDS011;5755;48.116;11.608;2023-05-07T04:55:10;7.47;;;4.75;;
11398;SDS011;5755;48.116;11.608;2023-05-07T04:57:37;6.15;;;4.40;;
11398;SDS011;5755;48.116;11.608;2023-05-07T05:00:06;6.43;;;4.60;;
11398;SDS011;5755;48.116;11.608;2023-05-07T05:02:34;4.95;;;4.35;;
11398;SDS011;5755;48.116;11.608;2023-05-07T05:05:03;6.32;;;4.10;;
11398;SDS011;5755;48.116;11.608;2023-05-07T05:07:30;4.80;;;3.90;;
11398;SDS011;5755;48.116;11.608;2023-05-07T05:09:57;4.63;;;4.20;;
11398;SDS011;5755;48.116;11.608;2023-05-07T05:12:24;5.00;;;4.05;;
11398;SDS011;5755;48.116;11.608;2023-05-07T05:14:51;4.75;;;4.28;;
11398;SDS011;5755;48.116;11.608;2023-05-07T05:17:18;5.18;;;4.40;;
11398;SDS011;5755;48.116;11.608;2023-05-07T05:19:45;6.03;;;4.05;;
11398;SDS011;5755;48.116;11.608;2023-05-07T05:22:13;6.20;;;4.20;;
11398;SDS011;5755;48.116;11.608;2023-05-07T05:24:40;5.65;;;4.18;;
11398;SDS011;5755;48.116;11.608;2023-05-07T05:27:07;4.50;;;4.07;;
11398;SDS011;5755;48.116;11.608;2023-05-07T05:29:34;4.30;;;3.90;;
11398;SDS011;5755;48.116;11.608;2023-05-07T05:32:01;8.43;;;4.28;;
11398;SDS011;5755;48.116;11.608;2023-05-07T05:34:28;5.47;;;3.70;;
11398;SDS011;5755;48.116;11.608;2023-05-07T05:36:55;5.78;;;4.25;;
11398;SDS011;5755;48.116;11.608;2023-05-07T05:39:24;4.75;;;4.30;;
11398;SDS011;5755;48.116;11.608;2023-05-07T05:41:51;4.53;;;4.13;;
11398;SDS011;5755;48.116;11.608;2023-05-07T05:44:18;4.85;;;3.47;;
11398;SDS011;5755;48.116;11.608;2023-05-07T05:46:45;5.13;;;4.07;;
11398;SDS011;5755;48.116;11.608;2023-05-07T05:49:15;4.05;;;3.55;;
11398;SDS011;5755;48.116;11.608;2023-05-07T05:51:42;4.57;;;3.40;;
11398;SDS011;5755;48.116;11.608;2023-05-07T05:54:19;5.35;;;3.60;;
11398;SDS011;5755;48.116;11.608;2023-05-07T05:56:57;5.38;;;3.65;;
11398;SDS011;5755;48.116;11.608;2023-05-07T05:59:24;5.05;;;3.50;;
11398;SDS011;5755;48.116;11.608;2023-05-07T06:01:52;3.38;;;3.08;;
11398;SDS011;5755;48.116;11.608;2023-05-07T06:04:19;4.45;;;3.38;;
11398;SDS011;5755;48.116;11.608;2023-05-07T06:06:46;4.20;;;3.70;;
11398;SDS011;5755;48.116;11.608;2023-05-07T06:09:13;5.18;;;4.35;;
11398;SDS011;5755;48.116;11.608;2023-05-07T06:11:40;6.70;;;3.95;;
11398;SDS011;5755;48.116;11.608;2023-05-07T06:14:12;4.75;;;3.58;;
11398;SDS011;5755;48.116;11.608;2023-05-07T06:16:39;4.82;;;4.20;;
11398;SDS011;5755;48.116;11.608;2023-05-07T06:19:07;6.45;;;4.07;;
11398;SDS011;5755;48.116;11.608;2023-05-07T06:21:33;7.72;;;3.90;;
11398;SDS011;5755;48.116;11.608;2023-05-07T06:24:00;6.47;;;3.97;;
11398;SDS011;5755;48.116;11.608;2023-05-07T06:26:27;4.20;;;3.70;;
11398;SDS011;5755;48.116;11.608;2023-05-07T06:28:54;4.68;;;3.55;;
11398;SDS011;5755;48.116;11.608;2023-05-07T06:31:23;4.45;;;3.63;;
11398;SDS011;5755;48.116;11.608;2023-05-07T06:33:55;4.82;;;3.30;;
11398;SDS011;5755;48.116;11.608;2023-05-07T06:36:22;3.65;;;3.35;;
11398;SDS011;5755;48.116;11.608;2023-05-07T06:38:49;4.88;;;3.10;;
11398;SDS011;5755;48.116;11.608;2023-05-07T06:41:16;4.32;;;3.25;;
11398;SDS011;5755;48.116;11.608;2023-05-07T06:43:43;4.10;;;3.00;;
11398;SDS011;5755;48.116;11.608;2023-05-07T06:46:10;3.40;;;3.10;;
11398;SDS011;5755;48.116;11.608;2023-05-07T06:48:38;4.25;;;3.17;;
11398;SDS011;5755;48.116;11.608;2023-05-07T06:51:05;4.40;;;3.30;;
11398;SDS011;5755;48.116;11.608;2023-05-07T06:53:32;4.63;;;2.90;;
11398;SDS011;5755;48.116;11.608;2023-05-07T06:55:59;5.18;;;3.13;;
11398;SDS011;5755;48.116;11.608;2023-05-07T06:58:26;4.30;;;3.15;;
11398;SDS011;5755;48.116;11.608;2023-05-07T07:00:53;3.72;;;3.40;;
11398;SDS011;5755;48.116;11.608;2023-05-07T07:03:20;4.00;;;2.95;;
11398;SDS011;5755;48.116;11.608;2023-05-07T07:05:49;5.57;;;2.67;;
11398;SDS011;5755;48.116;11.608;2023-05-07T07:08:17;3.33;;;2.50;;
11398;SDS011;5755;48.116;11.608;2023-05-07T07:10:46;4.97;;;3.30;;
11398;SDS011;5755;48.116;11.608;2023-05-07T07:13:13;3.17;;;2.88;;
11398;SDS011;5755;48.116;11.608;2023-05-07T07:15:40;4.18;;;2.80;;
11398;SDS011;5755;48.116;11.608;2023-05-07T07:18:07;3.20;;;2.53;;
11398;SDS011;5755;48.116;11.608;2023-05-07T07:20:34;4.28;;;2.85;;
11398;SDS011;5755;48.116;11.608;2023-05-07T07:23:02;5.15;;;2.60;;
11398;SDS011;5755;48.116;11.608;2023-05-07T07:25:29;4.93;;;2.72;;
11398;SDS011;5755;48.116;11.608;2023-05-07T07:27:56;3.10;;;2.80;;
11398;SDS011;5755;48.116;11.608;2023-05-07T07:30:23;3.20;;;2.67;;
11398;SDS011;5755;48.116;11.608;2023-05-07T07:32:51;2.90;;;2.60;;
11398;SDS011;5755;48.116;11.608;2023-05-07T07:35:17;2.65;;;2.45;;
11398;SDS011;5755;48.116;11.608;2023-05-07T07:37:44;3.30;;;2.70;;
11398;SDS011;5755;48.116;11.608;2023-05-07T07:40:13;2.50;;;2.30;;
11398;SDS011;5755;48.116;11.608;2023-05-07T07:42:40;4.00;;;2.75;;
11398;SDS011;5755;48.116;11.608;2023-05-07T07:45:10;4.47;;;2.97;;
11398;SDS011;5755;48.116;11.608;2023-05-07T07:47:37;4.65;;;2.30;;
11398;SDS011;5755;48.116;11.608;2023-05-07T07:50:05;4.45;;;2.47;;
11398;SDS011;5755;48.116;11.608;2023-05-07T07:52:33;2.30;;;2.10;;
11398;SDS011;5755;48.116;11.608;2023-05-07T07:55:00;3.03;;;2.50;;
11398;SDS011;5755;48.116;11.608;2023-05-07T07:57:28;3.80;;;3.00;;
11398;SDS011;5755;48.116;11.608;2023-05-07T07:59:55;3.42;;;2.40;;
11398;SDS011;5755;48.116;11.608;2023-05-07T08:02:22;4.30;;;2.90;;
11398;SDS011;5755;48.116;11.608;2023-05-07T08:04:49;3.50;;;2.80;;
11398;SDS011;5755;48.116;11.608;2023-05-07T08:07:15;3.05;;;2.67;;
11398;SDS011;5755;48.116;11.608;2023-05-07T08:09:43;4.45;;;2.80;;
11398;SDS011;5755;48.116;11.608;2023-05-07T08:12:10;3.92;;;2.78;;
11398;SDS011;5755;48.116;11.608;2023-05-07T08:14:39;4.30;;;2.88;;
11398;SDS011;5755;48.116;11.608;2023-05-07T08:17:06;4.95;;;2.80;;
11398;SDS011;5755;48.116;11.608;2023-05-07T08:19:34;4.10;;;2.70;;
11398;SDS011;5755;48.116;11.608;2023-05-07T08:22:02;3.20;;;2.90;;
11398;SDS011;5755;48.116;11.608;2023-05-07T08:24:29;2.60;;;2.40;;
11398;SDS011;5755;48.116;11.608;2023-05-07T08:26:55;3.88;;;2.70;;
11398;SDS011;5755;48.116;11.608;2023-05-07T08:29:22;4.05;;;3.13;;
11398;SDS011;5755;48.116;11.608;2023-05-07T08:31:51;4.25;;;3.08;;
11398;SDS011;5755;48.116;11.608;2023-05-07T08:34:18;5.90;;;2.90;;
11398;SDS011;5755;48.116;11.608;2023-05-07T08:36:45;3.92;;;2.95;;
11398;SDS011;5755;48.116;11.608;2023-05-07T08:39:13;3.22;;;2.90;;
11398;SDS011;5755;48.116;11.608;2023-05-07T08:41:41;4.03;;;2.90;;
11398;SDS011;5755;48.116;11.608;2023-05-07T08:44:12;3.20;;;2.88;;
11398;SDS011;5755;48.116;11.608;2023-05-07T08:46:40;3.25;;;2.40;;
11398;SDS011;5755;48.116;11.608;2023-05-07T08:49:09;2.58;;;2.38;;
11398;SDS011;5755;48.116;11.608;2023-05-07T08:51:36;3.05;;;2.72;;
11398;SDS011;5755;48.116;11.608;2023-05-07T08:54:04;2.90;;;2.60;;
11398;SDS011;5755;48.116;11.608;2023-05-07T08:56:32;5.65;;;2.90;;
11398;SDS011;5755;48.116;11.608;2023-05-07T08:58:59;4.85;;;2.97;;
11398;SDS011;5755;48.116;11.608;2023-05-07T09:01:25;2.92;;;2.25;;
11398;SDS011;5755;48.116;11.608;2023-05-07T09:03:52;2.60;;;2.35;;
11398;SDS011;5755;48.116;11.608;2023-05-07T09:06:21;2.55;;;2.25;;
11398;SDS011;5755;48.116;11.608;2023-05-07T09:08:49;2.85;;;2.28;;
11398;SDS011;5755;48.116;11.608;2023-05-07T09:11:19;2.72;;;2.40;;
11398;SDS011;5755;48.116;11.608;2023-05-07T09:13:47;3.80;;;2.20;;
11398;SDS011;5755;48.116;11.608;2023-05-07T09:16:14;3.78;;;2.47;;
11398;SDS011;5755;48.116;11.608;2023-05-07T09:18:41;2.90;;;2.70;;
11398;SDS011;5755;48.116;11.608;2023-05-07T09:21:09;2.78;;;2.40;;
11398;SDS011;5755;48.116;11.608;2023-05-07T09:23:38;4.22;;;2.30;;
11398;SDS011;5755;48.116;11.608;2023-05-07T09:26:06;2.97;;;2.50;;
11398;SDS011;5755;48.116;11.608;2023-05-07T09:28:37;4.07;;;2.50;;
11398;SDS011;5755;48.116;11.608;2023-05-07T09:31:05;2.60;;;2.40;;
11398;SDS011;5755;48.116;11.608;2023-05-07T09:33:33;4.40;;;2.50;;
11398;SDS011;5755;48.116;11.608;2023-05-07T09:36:02;2.78;;;2.20;;
11398;SDS011;5755;48.116;11.608;2023-05-07T09:38:30;3.20;;;2.30;;
11398;SDS011;5755;48.116;11.608;2023-05-07T09:43:40;262.52;;;18.95;;
11398;SDS011;5755;48.116;11.608;2023-05-07T09:46:09;5.47;;;2.25;;
11398;SDS011;5755;48.116;11.608;2023-05-07T09:48:38;3.53;;;2.47;;
11398;SDS011;5755;48.116;11.608;2023-05-07T09:51:15;2.33;;;2.10;;
11398;SDS011;5755;48.116;11.608;2023-05-07T09:53:47;2.33;;;2.08;;
11398;SDS011;5755;48.116;11.608;2023-05-07T09:56:20;5.03;;;2.50;;
11398;SDS011;5755;48.116;11.608;2023-05-07T09:58:50;4.18;;;2.55;;
11398;SDS011;5755;48.116;11.608;2023-05-07T10:01:19;2.78;;;2.47;;
11398;SDS011;5755;48.116;11.608;2023-05-07T10:03:48;3.45;;;2.70;;
11398;SDS011;5755;48.116;11.608;2023-05-07T10:06:17;2.97;;;2.63;;
11398;SDS011;5755;48.116;11.608;2023-05-07T10:08:45;3.70;;;2.45;;
11398;SDS011;5755;48.116;11.608;2023-05-07T10:11:12;2.28;;;2.17;;
11398;SDS011;5755;48.116;11.608;2023-05-07T10:13:42;2.67;;;2.20;;
11398;SDS011;5755;48.116;11.608;2023-05-07T10:16:09;3.58;;;2.65;;
11398;SDS011;5755;48.116;11.608;2023-05-07T10:18:36;2.45;;;2.25;;
11398;SDS011;5755;48.116;11.608;2023-05-07T10:21:06;2.67;;;2.33;;
11398;SDS011;5755;48.116;11.608;2023-05-07T10:23:35;2.35;;;2.10;;
11398;SDS011;5755;48.116;11.608;2023-05-07T10:26:03;3.28;;;2.00;;
11398;SDS011;5755;48.116;11.608;2023-05-07T10:28:33;4.10;;;2.20;;
11398;SDS011;5755;48.116;11.608;2023-05-07T10:33:58;2.58;;;2.38;;
11398;SDS011;5755;48.116;11.608;2023-05-07T10:36:32;2.40;;;2.15;;
11398;SDS011;5755;48.116;11.608;2023-05-07T10:38:59;4.00;;;2.00;;
11398;SDS011;5755;48.116;11.608;2023-05-07T10:41:30;3.88;;;2.17;;
11398;SDS011;5755;48.116;11.608;2023-05-07T10:50:24;4.10;;;1.90;;
11398;SDS011;5755;48.116;11.608;2023-05-07T10:58:56;3.38;;;2.47;;
11398;SDS011;5755;48.116;11.608;2023-05-07T11:01:50;2.40;;;2.20;;
11398;SDS011;5755;48.116;11.608;2023-05-07T11:04:18;4.25;;;2.22;;
11398;SDS011;5755;48.116;11.608;2023-05-07T11:09:57;2.97;;;2.30;;
11398;SDS011;5755;48.116;11.608;2023-05-07T11:15:38;5.65;;;2.13;;
11398;SDS011;5755;48.116;11.608;2023-05-07T11:18:07;2.63;;;2.00;;
11398;SDS011;5755;48.116;11.608;2023-05-07T11:20:44;4.82;;;3.00;;
11398;SDS011;5755;48.116;11.608;2023-05-07T11:26:44;4.97;;;2.65;;
11398;SDS011;5755;48.116;11.608;2023-05-07T11:29:12;2.90;;;2.60;;
11398;SDS011;5755;48.116;11.608;2023-05-07T11:31:40;3.35;;;3.00;;
11398;SDS011;5755;48.116;11.608;2023-05-07T11:34:07;5.15;;;3.50;;
11398;SDS011;5755;48.116;11.608;2023-05-07T11:36:35;4.30;;;3.38;;
11398;SDS011;5755;48.116;11.608;2023-05-07T11:39:22;5.63;;;3.95;;
11398;SDS011;5755;48.116;11.608;2023-05-07T11:41:51;3.70;;;3.33;;
11398;SDS011;5755;48.116;11.608;2023-05-07T11:44:18;5.70;;;3.35;;
11398;SDS011;5755;48.116;11.608;2023-05-07T11:46:45;4.10;;;3.50;;
11398;SDS011;5755;48.116;11.608;2023-05-07T11:49:12;3.92;;;3.50;;
11398;SDS011;5755;48.116;11.608;2023-05-07T11:51:40;3.13;;;2.80;;
11398;SDS011;5755;48.116;11.608;2023-05-07T11:54:08;4.10;;;3.53;;
11398;SDS011;5755;48.116;11.608;2023-05-07T11:56:36;3.53;;;3.22;;
11398;SDS011;5755;48.116;11.608;2023-05-07T11:59:05;6.38;;;3.78;;
11398;SDS011;5755;48.116;11.608;2023-05-07T12:01:39;3.72;;;3.15;;
11398;SDS011;5755;48.116;11.608;2023-05-07T12:04:06;4.70;;;3.28;;
11398;SDS011;5755;48.116;11.608;2023-05-07T12:06:35;4.32;;;3.90;;
11398;SDS011;5755;48.116;11.608;2023-05-07T12:09:05;3.65;;;3.35;;
11398;SDS011;5755;48.116;11.608;2023-05-07T12:11:37;4.20;;;3.70;;
11398;SDS011;5755;48.116;11.608;2023-05-07T12:14:07;4.30;;;3.20;;
11398;SDS011;5755;48.116;11.608;2023-05-07T12:16:34;4.28;;;3.17;;
11398;SDS011;5755;48.116;11.608;2023-05-07T12:19:03;4.20;;;3.13;;
11398;SDS011;5755;48.116;11.608;2023-05-07T12:21:31;5.55;;;2.95;;
11398;SDS011;5755;48.116;11.608;2023-05-07T12:23:59;5.03;;;2.90;;
11398;SDS011;5755;48.116;11.608;2023-05-07T12:26:27;3.25;;;2.95;;
11398;SDS011;5755;48.116;11.608;2023-05-07T12:28:54;3.67;;;3.13;;
11398;SDS011;5755;48.116;11.608;2023-05-07T12:31:26;4.43;;;3.20;;
11398;SDS011;5755;48.116;11.608;2023-05-07T12:33:53;4.57;;;2.70;;
11398;SDS011;5755;48.116;11.608;2023-05-07T12:36:20;3.65;;;2.63;;
11398;SDS011;5755;48.116;11.608;2023-05-07T12:38:48;4.80;;;2.85;;
11398;SDS011;5755;48.116;11.608;2023-05-07T12:41:16;5.20;;;2.90;;
11398;SDS011;5755;48.116;11.608;2023-05-07T12:43:44;3.25;;;2.90;;
11398;SDS011;5755;48.116;11.608;2023-05-07T12:46:12;2.78;;;2.53;;
11398;SDS011;5755;48.116;11.608;2023-05-07T12:48:49;3.22;;;2.53;;
11398;SDS011;5755;48.116;11.608;2023-05-07T12:51:57;3.13;;;2.83;;
11398;SDS011;5755;48.116;11.608;2023-05-07T12:54:45;3.08;;;2.53;;
11398;SDS011;5755;48.116;11.608;2023-05-07T12:57:14;3.58;;;2.60;;
11398;SDS011;5755;48.116;11.608;2023-05-07T12:59:45;3.15;;;2.38;;
11398;SDS011;5755;48.116;11.608;2023-05-07T13:02:12;5.00;;;2.63;;
11398;SDS011;5755;48.116;11.608;2023-05-07T13:04:42;4.32;;;2.10;;
11398;SDS011;5755;48.116;11.608;2023-05-07T13:07:10;4.45;;;2.25;;
11398;SDS011;5755;48.116;11.608;2023-05-07T13:09:51;3.47;;;2.20;;
11398;SDS011;5755;48.116;11.608;2023-05-07T13:12:18;3.80;;;2.40;;
11398;SDS011;5755;48.116;11.608;2023-05-07T13:14:59;3.42;;;2.20;;
11398;SDS011;5755;48.116;11.608;2023-05-07T13:17:26;2.67;;;2.05;;
11398;SDS011;5755;48.116;11.608;2023-05-07T13:20:08;3.60;;;2.30;;
11398;SDS011;5755;48.116;11.608;2023-05-07T13:22:54;2.10;;;1.90;;
11398;SDS011;5755;48.116;11.608;2023-05-07T13:25:34;2.55;;;1.90;;
11398;SDS011;5755;48.116;11.608;2023-05-07T13:28:15;2.40;;;1.65;;
11398;SDS011;5755;48.116;11.608;2023-05-07T13:30:56;3.13;;;1.90;;
11398;SDS011;5755;48.116;11.608;2023-05-07T13:33:23;2.60;;;1.92;;
11398;SDS011;5755;48.116;11.608;2023-05-07T13:35:51;2.28;;;1.95;;
11398;SDS011;5755;48.116;11.608;2023-05-07T13:38:20;2.67;;;2.00;;
11398;SDS011;5755;48.116;11.608;2023-05-07T13:41:04;3.35;;;1.90;;
11398;SDS011;5755;48.116;11.608;2023-05-07T13:43:31;3.58;;;2.08;;
11398;SDS011;5755;48.116;11.608;2023-05-07T13:45:58;2.55;;;1.90;;
11398;SDS011;5755;48.116;11.608;2023-05-07T13:48:25;5.28;;;1.83;;
11398;SDS011;5755;48.116;11.608;2023-05-07T13:51:12;2.20;;;2.00;;
11398;SDS011;5755;48.116;11.608;2023-05-07T13:53:42;2.38;;;2.00;;
11398;SDS011;5755;48.116;11.608;2023-05-07T13:56:09;3.97;;;2.00;;
11398;SDS011;5755;48.116;11.608;2023-05-07T13:58:47;2.30;;;2.10;;
11398;SDS011;5755;48.116;11.608;2023-05-07T14:01:28;2.67;;;2.10;;
11398;SDS011;5755;48.116;11.608;2023-05-07T14:04:08;4.18;;;2.42;;
11398;SDS011;5755;48.116;11.608;2023-05-07T14:06:55;2.78;;;1.90;;
11398;SDS011;5755;48.116;11.608;2023-05-07T14:09:27;3.25;;;2.33;;
11398;SDS011;5755;48.116;11.608;2023-05-07T14:12:08;3.78;;;2.80;;
11398;SDS011;5755;48.116;11.608;2023-05-07T14:14:35;2.95;;;1.90;;
11398;SDS011;5755;48.116;11.608;2023-05-07T14:17:03;3.08;;;2.17;;
11398;SDS011;5755;48.116;11.608;2023-05-07T14:19:30;3.33;;;2.28;;
11398;SDS011;5755;48.116;11.608;2023-05-07T14:21:57;2.40;;;2.17;;
11398;SDS011;5755;48.116;11.608;2023-05-07T14:24:26;2.60;;;2.40;;
11398;SDS011;5755;48.116;11.608;2023-05-07T14:27:06;2.60;;;2.40;;
11398;SDS011;5755;48.116;11.608;2023-05-07T14:29:33;3.63;;;2.47;;
11398;SDS011;5755;48.116;11.608;2023-05-07T14:32:14;3.72;;;2.70;;
11398;SDS011;5755;48.116;11.608;2023-05-07T14:34:43;2.88;;;2.55;;
11398;SDS011;5755;48.116;11.608;2023-05-07T14:37:25;3.05;;;2.47;;
11398;SDS011;5755;48.116;11.608;2023-05-07T14:43:23;5.10;;;2.60;;
11398;SDS011;5755;48.116;11.608;2023-05-07T14:46:17;2.53;;;2.30;;
11398;SDS011;5755;48.116;11.608;2023-05-07T14:49:16;4.72;;;2.40;;
11398;SDS011;5755;48.116;11.608;2023-05-07T14:51:43;2.88;;;2.60;;
11398;SDS011;5755;48.116;11.608;2023-05-07T15:15:12;3.40;;;2.42;;
11398;SDS011;5755;48.116;11.608;2023-05-07T15:22:50;5.57;;;2.60;;
11398;SDS011;5755;48.116;11.608;2023-05-07T15:25:37;3.28;;;2.80;;
11398;SDS011;5755;48.116;11.608;2023-05-07T15:33:09;2.60;;;2.40;;
11398;SDS011;5755;48.116;11.608;2023-05-07T15:35:36;4.95;;;2.50;;
11398;SDS011;5755;48.116;11.608;2023-05-07T15:38:04;4.45;;;2.53;;
11398;SDS011;5755;48.116;11.608;2023-05-07T15:40:35;3.30;;;2.60;;
11398;SDS011;5755;48.116;11.608;2023-05-07T15:43:07;2.92;;;2.35;;
11398;SDS011;5755;48.116;11.608;2023-05-07T15:45:53;3.42;;;2.60;;
11398;SDS011;5755;48.116;11.608;2023-05-07T15:48:22;2.45;;;2.25;;
11398;SDS011;5755;48.116;11.608;2023-05-07T15:50:49;2.95;;;2.30;;
11398;SDS011;5755;48.116;11.608;2023-05-07T15:53:17;3.00;;;2.67;;
11398;SDS011;5755;48.116;11.608;2023-05-07T15:55:44;3.33;;;2.45;;
11398;SDS011;5755;48.116;11.608;2023-05-07T15:58:12;2.38;;;2.22;;
11398;SDS011;5755;48.116;11.608;2023-05-07T16:00:39;2.58;;;2.08;;
11398;SDS011;5755;48.116;11.608;2023-05-07T16:03:06;4.50;;;2.17;;